sensor_id;sensor_type;location;lat;lon;timestamp;pressure;altitude;pressure_sealevel;temperature;humidity
70248;BME280;57641;51.416;5.506;2023-02-13T00:00:45;103812.69;;;11.67;56.45
70248;BME280;57641;51.416;5.506;2023-02-13T00:03:12;103816.50;;;11.63;56.54
70248;BME280;57641;51.416;5.506;2023-02-13T00:05:38;103814.84;;;11.60;56.13
70248;BME280;57641;51.416;5.506;2023-02-13T00:08:04;103814.94;;;11.59;56.50
70248;BME280;57641;51.416;5.506;2023-02-13T00:10:31;103809.69;;;11.57;56.64
70248;BME280;57641;51.416;5.506;2023-02-13T00:13:14;103808.91;;;11.55;56.06
70248;BME280;57641;51.416;5.506;2023-02-13T00:15:43;103809.09;;;11.52;56.20
70248;BME280;57641;51.416;5.506;2023-02-13T00:18:09;103813.56;;;11.52;56.07
70248;BME280;57641;51.416;5.506;2023-02-13T00:20:34;103806.75;;;11.46;55.58
70248;BME280;57641;51.416;5.506;2023-02-13T00:23:00;103797.09;;;11.43;55.47
70248;BME280;57641;51.416;5.506;2023-02-13T00:25:29;103801.75;;;11.40;56.12
70248;BME280;57641;51.416;5.506;2023-02-13T00:27:54;103797.53;;;11.36;55.52
70248;BME280;57641;51.416;5.506;2023-02-13T00:30:20;103794.97;;;11.34;55.37
70248;BME280;57641;51.416;5.506;2023-02-13T00:32:46;103794.28;;;11.31;55.84
70248;BME280;57641;51.416;5.506;2023-02-13T00:35:13;103793.50;;;11.29;55.13
70248;BME280;57641;51.416;5.506;2023-02-13T00:37:38;103798.03;;;11.27;54.75
70248;BME280;57641;51.416;5.506;2023-02-13T00:40:04;103800.03;;;11.23;55.32
70248;BME280;57641;51.416;5.506;2023-02-13T00:42:31;103790.56;;;11.18;55.30
70248;BME280;57641;51.416;5.506;2023-02-13T00:44:59;103788.16;;;11.13;55.34
70248;BME280;57641;51.416;5.506;2023-02-13T00:47:24;103783.13;;;11.07;54.92
70248;BME280;57641;51.416;5.506;2023-02-13T00:49:53;103787.78;;;11.04;54.84
70248;BME280;57641;51.416;5.506;2023-02-13T00:52:19;103790.72;;;10.99;55.17
70248;BME280;57641;51.416;5.506;2023-02-13T00:54:44;103781.94;;;10.97;55.05
70248;BME280;57641;51.416;5.506;2023-02-13T00:57:11;103786.59;;;10.93;54.48
70248;BME280;57641;51.416;5.506;2023-02-13T00:59:37;103784.94;;;10.91;54.73
70248;BME280;57641;51.416;5.506;2023-02-13T01:02:03;103785.00;;;10.89;54.55
70248;BME280;57641;51.416;5.506;2023-02-13T01:04:29;103792.31;;;10.86;54.90
70248;BME280;57641;51.416;5.506;2023-02-13T01:06:54;103785.44;;;10.82;54.69
70248;BME280;57641;51.416;5.506;2023-02-13T01:09:20;103789.03;;;10.81;54.62
70248;BME280;57641;51.416;5.506;2023-02-13T01:11:45;103789.38;;;10.75;55.06
70248;BME280;57641;51.416;5.506;2023-02-13T01:14:11;103792.03;;;10.75;55.06
70248;BME280;57641;51.416;5.506;2023-02-13T01:16:37;103794.09;;;10.70;54.64
70248;BME280;57641;51.416;5.506;2023-02-13T01:19:06;103781.78;;;10.67;54.72
70248;BME280;57641;51.416;5.506;2023-02-13T01:21:32;103791.84;;;10.62;55.00
70248;BME280;57641;51.416;5.506;2023-02-13T01:24:02;103783.06;;;10.60;55.06
70248;BME280;57641;51.416;5.506;2023-02-13T01:26:28;103784.25;;;10.54;54.57
70248;BME280;57641;51.416;5.506;2023-02-13T01:28:56;103785.44;;;10.49;54.57
70248;BME280;57641;51.416;5.506;2023-02-13T01:31:24;103781.13;;;10.46;55.52
70248;BME280;57641;51.416;5.506;2023-02-13T01:33:55;103790.06;;;10.45;54.90
70248;BME280;57641;51.416;5.506;2023-02-13T01:36:23;103787.53;;;10.42;55.11
70248;BME280;57641;51.416;5.506;2023-02-13T01:38:53;103781.59;;;10.37;55.57
70248;BME280;57641;51.416;5.506;2023-02-13T01:41:20;103782.63;;;10.35;54.97
70248;BME280;57641;51.416;5.506;2023-02-13T01:43:53;103786.31;;;10.32;55.97
70248;BME280;57641;51.416;5.506;2023-02-13T01:46:28;103779.50;;;10.27;55.47
70248;BME280;57641;51.416;5.506;2023-02-13T01:49:00;103778.78;;;10.23;55.55
70248;BME280;57641;51.416;5.506;2023-02-13T01:51:31;103780.78;;;10.20;56.20
70248;BME280;57641;51.416;5.506;2023-02-13T01:54:07;103771.81;;;10.21;55.84
70248;BME280;57641;51.416;5.506;2023-02-13T01:56:39;103772.84;;;10.18;55.23
70248;BME280;57641;51.416;5.506;2023-02-13T01:59:19;103768.47;;;10.15;55.34
70248;BME280;57641;51.416;5.506;2023-02-13T02:01:46;103768.81;;;10.09;55.32
70248;BME280;57641;51.416;5.506;2023-02-13T02:04:21;103766.91;;;10.11;55.43
70248;BME280;57641;51.416;5.506;2023-02-13T02:06:52;103769.81;;;10.07;55.70
70248;BME280;57641;51.416;5.506;2023-02-13T02:09:24;103769.75;;;10.08;55.58
70248;BME280;57641;51.416;5.506;2023-02-13T02:12:30;103768.09;;;10.06;55.58
70248;BME280;57641;51.416;5.506;2023-02-13T02:15:00;103769.28;;;10.00;55.62
70248;BME280;57641;51.416;5.506;2023-02-13T02:17:26;103772.09;;;9.97;55.29
70248;BME280;57641;51.416;5.506;2023-02-13T02:20:20;103770.44;;;9.95;55.65
70248;BME280;57641;51.416;5.506;2023-02-13T02:48:32;103774.47;;;9.50;55.71
70248;BME280;57641;51.416;5.506;2023-02-13T02:54:16;103763.97;;;9.47;55.96
70248;BME280;57641;51.416;5.506;2023-02-13T02:57:16;103763.47;;;9.39;56.58
70248;BME280;57641;51.416;5.506;2023-02-13T02:59:45;103764.25;;;9.41;56.02
70248;BME280;57641;51.416;5.506;2023-02-13T03:02:34;103760.81;;;9.39;56.14
70248;BME280;57641;51.416;5.506;2023-02-13T03:05:23;103754.69;;;9.37;56.26
70248;BME280;57641;51.416;5.506;2023-02-13T03:08:10;103760.25;;;9.32;55.92
70248;BME280;57641;51.416;5.506;2023-02-13T03:10:37;103765.50;;;9.34;56.42
70248;BME280;57641;51.416;5.506;2023-02-13T03:13:48;103751.69;;;9.26;56.12
70248;BME280;57641;51.416;5.506;2023-02-13T03:16:17;103756.06;;;9.27;56.00
70248;BME280;57641;51.416;5.506;2023-02-13T03:19:03;103759.91;;;9.21;55.85
70248;BME280;57641;51.416;5.506;2023-02-13T03:22:36;103767.19;;;9.18;56.61
70248;BME280;57641;51.416;5.506;2023-02-13T03:28:00;103754.16;;;9.12;56.28
70248;BME280;57641;51.416;5.506;2023-02-13T03:30:54;103758.25;;;9.00;56.73
70248;BME280;57641;51.416;5.506;2023-02-13T03:39:18;103750.78;;;8.89;56.79
70248;BME280;57641;51.416;5.506;2023-02-13T03:41:51;103757.75;;;8.92;56.23
70248;BME280;57641;51.416;5.506;2023-02-13T03:46:52;103758.53;;;8.94;56.56
70248;BME280;57641;51.416;5.506;2023-02-13T03:49:27;103759.50;;;8.93;56.28
70248;BME280;57641;51.416;5.506;2023-02-13T03:54:51;103760.06;;;8.81;56.08
70248;BME280;57641;51.416;5.506;2023-02-13T03:57:39;103765.44;;;8.79;55.51
70248;BME280;57641;51.416;5.506;2023-02-13T04:00:26;103759.41;;;8.76;55.94
70248;BME280;57641;51.416;5.506;2023-02-13T04:02:57;103772.69;;;8.76;56.23
70248;BME280;57641;51.416;5.506;2023-02-13T04:05:28;103769.25;;;8.74;55.56
70248;BME280;57641;51.416;5.506;2023-02-13T04:07:54;103771.84;;;8.75;56.12
70248;BME280;57641;51.416;5.506;2023-02-13T04:10:22;103773.78;;;8.72;55.85
70248;BME280;57641;51.416;5.506;2023-02-13T04:15:41;103776.72;;;8.66;55.38
70248;BME280;57641;51.416;5.506;2023-02-13T04:18:20;103777.00;;;8.60;55.41
70248;BME280;57641;51.416;5.506;2023-02-13T04:20:47;103773.53;;;8.58;55.60
70248;BME280;57641;51.416;5.506;2023-02-13T04:23:14;103769.00;;;8.60;56.00
70248;BME280;57641;51.416;5.506;2023-02-13T04:25:45;103761.09;;;8.58;55.48
70248;BME280;57641;51.416;5.506;2023-02-13T04:28:11;103759.44;;;8.56;55.43
70248;BME280;57641;51.416;5.506;2023-02-13T04:30:37;103755.00;;;8.56;55.73
70248;BME280;57641;51.416;5.506;2023-02-13T04:33:03;103761.25;;;8.55;55.60
70248;BME280;57641;51.416;5.506;2023-02-13T04:35:29;103758.66;;;8.54;55.31
70248;BME280;57641;51.416;5.506;2023-02-13T04:37:56;103754.25;;;8.53;55.52
70248;BME280;57641;51.416;5.506;2023-02-13T04:40:21;103760.66;;;8.48;55.51
70248;BME280;57641;51.416;5.506;2023-02-13T04:42:48;103760.81;;;8.45;55.38
70248;BME280;57641;51.416;5.506;2023-02-13T04:45:14;103756.41;;;8.44;55.81
70248;BME280;57641;51.416;5.506;2023-02-13T04:47:41;103755.59;;;8.42;55.94
70248;BME280;57641;51.416;5.506;2023-02-13T04:50:11;103753.09;;;8.39;56.10
70248;BME280;57641;51.416;5.506;2023-02-13T04:52:42;103759.44;;;8.35;55.48
70248;BME280;57641;51.416;5.506;2023-02-13T04:55:25;103751.75;;;8.29;56.04
70248;BME280;57641;51.416;5.506;2023-02-13T04:58:00;103750.00;;;8.28;55.77
70248;BME280;57641;51.416;5.506;2023-02-13T05:00:32;103749.34;;;8.23;55.64
70248;BME280;57641;51.416;5.506;2023-02-13T05:03:17;103758.19;;;8.24;56.13
70248;BME280;57641;51.416;5.506;2023-02-13T05:06:16;103758.50;;;8.16;55.66
70248;BME280;57641;51.416;5.506;2023-02-13T05:08:54;103752.72;;;8.06;55.74
70248;BME280;57641;51.416;5.506;2023-02-13T05:11:30;103746.59;;;8.04;56.05
70248;BME280;57641;51.416;5.506;2023-02-13T05:14:12;103752.88;;;8.03;56.14
70248;BME280;57641;51.416;5.506;2023-02-13T05:16:51;103751.00;;;8.05;55.85
70248;BME280;57641;51.416;5.506;2023-02-13T05:19:22;103756.56;;;7.99;55.96
70248;BME280;57641;51.416;5.506;2023-02-13T05:21:56;103750.41;;;7.99;56.46
70248;BME280;57641;51.416;5.506;2023-02-13T05:24:45;103747.00;;;7.95;56.50
70248;BME280;57641;51.416;5.506;2023-02-13T05:27:11;103751.47;;;7.95;56.53
70248;BME280;57641;51.416;5.506;2023-02-13T05:29:36;103753.19;;;7.96;55.52
70248;BME280;57641;51.416;5.506;2023-02-13T05:32:02;103755.84;;;7.96;55.58
70248;BME280;57641;51.416;5.506;2023-02-13T05:34:31;103758.66;;;7.93;55.48
70248;BME280;57641;51.416;5.506;2023-02-13T05:36:56;103749.81;;;7.92;55.49
70248;BME280;57641;51.416;5.506;2023-02-13T05:39:22;103758.72;;;7.91;55.44
70248;BME280;57641;51.416;5.506;2023-02-13T05:41:48;103759.63;;;7.90;55.61
70248;BME280;57641;51.416;5.506;2023-02-13T05:44:16;103764.22;;;7.87;55.81
70248;BME280;57641;51.416;5.506;2023-02-13T05:46:43;103766.00;;;7.86;55.83
70248;BME280;57641;51.416;5.506;2023-02-13T05:49:10;103766.78;;;7.88;55.63
70248;BME280;57641;51.416;5.506;2023-02-13T05:51:36;103771.38;;;7.85;55.49
70248;BME280;57641;51.416;5.506;2023-02-13T05:54:04;103760.69;;;7.86;55.95
70248;BME280;57641;51.416;5.506;2023-02-13T05:56:30;103765.13;;;7.86;56.03
70248;BME280;57641;51.416;5.506;2023-02-13T05:58:55;103762.75;;;7.80;56.02
70248;BME280;57641;51.416;5.506;2023-02-13T06:01:22;103760.22;;;7.77;56.06
70248;BME280;57641;51.416;5.506;2023-02-13T06:03:49;103756.63;;;7.78;56.87
70248;BME280;57641;51.416;5.506;2023-02-13T06:06:15;103759.28;;;7.78;57.01
70248;BME280;57641;51.416;5.506;2023-02-13T06:08:42;103760.28;;;7.75;57.60
70248;BME280;57641;51.416;5.506;2023-02-13T06:11:08;103758.53;;;7.74;57.24
70248;BME280;57641;51.416;5.506;2023-02-13T06:13:34;103757.72;;;7.72;57.42
70248;BME280;57641;51.416;5.506;2023-02-13T06:16:00;103753.44;;;7.70;57.99
70248;BME280;57641;51.416;5.506;2023-02-13T06:18:26;103754.28;;;7.70;57.73
70248;BME280;57641;51.416;5.506;2023-02-13T06:20:51;103759.72;;;7.67;58.00
70248;BME280;57641;51.416;5.506;2023-02-13T06:23:17;103754.34;;;7.69;57.92
70248;BME280;57641;51.416;5.506;2023-02-13T06:25:43;103758.00;;;7.66;57.43
70248;BME280;57641;51.416;5.506;2023-02-13T06:28:12;103758.06;;;7.64;57.83
70248;BME280;57641;51.416;5.506;2023-02-13T06:30:38;103754.59;;;7.62;57.65
70248;BME280;57641;51.416;5.506;2023-02-13T06:33:04;103758.00;;;7.66;57.77
70248;BME280;57641;51.416;5.506;2023-02-13T06:35:30;103760.84;;;7.61;57.84
70248;BME280;57641;51.416;5.506;2023-02-13T06:37:56;103770.72;;;7.58;57.86
70248;BME280;57641;51.416;5.506;2023-02-13T06:40:21;103768.06;;;7.58;58.55
70248;BME280;57641;51.416;5.506;2023-02-13T06:42:47;103765.56;;;7.55;58.75
70248;BME280;57641;51.416;5.506;2023-02-13T06:45:13;103757.63;;;7.53;59.02
70248;BME280;57641;51.416;5.506;2023-02-13T06:47:45;103755.91;;;7.52;59.06
70248;BME280;57641;51.416;5.506;2023-02-13T06:50:12;103764.69;;;7.54;59.44
70248;BME280;57641;51.416;5.506;2023-02-13T06:52:40;103767.38;;;7.53;59.30
70248;BME280;57641;51.416;5.506;2023-02-13T06:55:11;103762.94;;;7.53;59.57
70248;BME280;57641;51.416;5.506;2023-02-13T06:57:37;103763.91;;;7.51;59.34
70248;BME280;57641;51.416;5.506;2023-02-13T07:00:03;103771.78;;;7.54;59.15
70248;BME280;57641;51.416;5.506;2023-02-13T07:02:31;103764.06;;;7.48;59.19
70248;BME280;57641;51.416;5.506;2023-02-13T07:04:57;103772.03;;;7.48;59.58
70248;BME280;57641;51.416;5.506;2023-02-13T07:07:23;103779.06;;;7.49;59.76
70248;BME280;57641;51.416;5.506;2023-02-13T07:09:49;103779.84;;;7.51;59.87
70248;BME280;57641;51.416;5.506;2023-02-13T07:12:14;103780.84;;;7.48;60.13
70248;BME280;57641;51.416;5.506;2023-02-13T07:14:40;103785.28;;;7.48;59.79
70248;BME280;57641;51.416;5.506;2023-02-13T07:17:06;103789.63;;;7.50;59.78
70248;BME280;57641;51.416;5.506;2023-02-13T07:19:31;103790.56;;;7.49;59.92
70248;BME280;57641;51.416;5.506;2023-02-13T07:21:57;103785.25;;;7.49;60.16
70248;BME280;57641;51.416;5.506;2023-02-13T07:24:26;103779.84;;;7.51;60.46
70248;BME280;57641;51.416;5.506;2023-02-13T07:26:51;103779.06;;;7.49;60.40
70248;BME280;57641;51.416;5.506;2023-02-13T07:29:18;103783.47;;;7.50;60.51
70248;BME280;57641;51.416;5.506;2023-02-13T07:31:43;103781.66;;;7.50;59.97
70248;BME280;57641;51.416;5.506;2023-02-13T07:34:09;103779.94;;;7.49;60.31
70248;BME280;57641;51.416;5.506;2023-02-13T07:36:38;103789.63;;;7.50;59.91
70248;BME280;57641;51.416;5.506;2023-02-13T07:39:03;103785.28;;;7.48;60.19
70248;BME280;57641;51.416;5.506;2023-02-13T07:41:29;103787.91;;;7.49;60.02
70248;BME280;57641;51.416;5.506;2023-02-13T07:43:54;103780.00;;;7.48;59.86
70248;BME280;57641;51.416;5.506;2023-02-13T07:46:21;103792.34;;;7.49;59.82
70248;BME280;57641;51.416;5.506;2023-02-13T07:48:47;103785.34;;;7.46;60.08
70248;BME280;57641;51.416;5.506;2023-02-13T07:51:13;103784.38;;;7.49;59.58
70248;BME280;57641;51.416;5.506;2023-02-13T07:53:41;103783.47;;;7.50;59.95
70248;BME280;57641;51.416;5.506;2023-02-13T07:56:08;103784.31;;;7.50;59.47
70248;BME280;57641;51.416;5.506;2023-02-13T07:58:35;103784.44;;;7.47;59.77
70248;BME280;57641;51.416;5.506;2023-02-13T08:01:09;103788.88;;;7.47;59.59
70248;BME280;57641;51.416;5.506;2023-02-13T08:03:35;103794.25;;;7.45;59.34
70248;BME280;57641;51.416;5.506;2023-02-13T08:06:01;103797.66;;;7.49;59.66
70248;BME280;57641;51.416;5.506;2023-02-13T08:08:28;103793.25;;;7.48;59.36
70248;BME280;57641;51.416;5.506;2023-02-13T08:10:55;103796.78;;;7.48;59.48
70248;BME280;57641;51.416;5.506;2023-02-13T08:13:42;103791.47;;;7.48;59.67
70248;BME280;57641;51.416;5.506;2023-02-13T08:16:08;103793.31;;;7.46;59.64
70248;BME280;57641;51.416;5.506;2023-02-13T08:18:37;103794.00;;;7.51;59.54
70248;BME280;57641;51.416;5.506;2023-02-13T08:21:03;103800.97;;;7.54;59.68
70248;BME280;57641;51.416;5.506;2023-02-13T08:23:32;103809.81;;;7.54;59.91
70248;BME280;57641;51.416;5.506;2023-02-13T08:25:59;103800.94;;;7.55;59.54
70248;BME280;57641;51.416;5.506;2023-02-13T08:28:29;103808.75;;;7.58;59.83
70248;BME280;57641;51.416;5.506;2023-02-13T08:30:55;103812.28;;;7.59;60.04
70248;BME280;57641;51.416;5.506;2023-02-13T08:33:21;103820.00;;;7.65;60.34
70248;BME280;57641;51.416;5.506;2023-02-13T08:35:47;103824.13;;;7.72;60.61
70248;BME280;57641;51.416;5.506;2023-02-13T08:38:13;103825.66;;;7.78;60.45
70248;BME280;57641;51.416;5.506;2023-02-13T08:40:40;103822.75;;;7.84;60.03
70248;BME280;57641;51.416;5.506;2023-02-13T08:43:05;103828.75;;;7.89;60.06
70248;BME280;57641;51.416;5.506;2023-02-13T08:45:32;103830.25;;;7.96;60.65
70248;BME280;57641;51.416;5.506;2023-02-13T08:48:02;103827.34;;;8.02;60.78
70248;BME280;57641;51.416;5.506;2023-02-13T08:50:32;103832.44;;;8.06;60.83
70248;BME280;57641;51.416;5.506;2023-02-13T08:53:00;103835.72;;;8.13;60.58
70248;BME280;57641;51.416;5.506;2023-02-13T08:55:30;103840.22;;;8.11;60.49
70248;BME280;57641;51.416;5.506;2023-02-13T08:58:03;103831.19;;;8.15;60.79
70248;BME280;57641;51.416;5.506;2023-02-13T09:00:30;103832.13;;;8.14;60.79
70248;BME280;57641;51.416;5.506;2023-02-13T09:03:03;103833.63;;;8.20;61.17
70248;BME280;57641;51.416;5.506;2023-02-13T09:05:29;103840.44;;;8.27;61.34
70248;BME280;57641;51.416;5.506;2023-02-13T09:07:59;103834.03;;;8.32;61.15
70248;BME280;57641;51.416;5.506;2023-02-13T09:10:25;103839.91;;;8.40;61.72
70248;BME280;57641;51.416;5.506;2023-02-13T09:12:53;103828.09;;;8.46;61.81
70248;BME280;57641;51.416;5.506;2023-02-13T09:15:19;103830.44;;;8.54;61.87
70248;BME280;57641;51.416;5.506;2023-02-13T09:17:46;103827.31;;;8.64;61.32
70248;BME280;57641;51.416;5.506;2023-02-13T09:20:12;103836.81;;;8.70;61.31
70248;BME280;57641;51.416;5.506;2023-02-13T09:22:41;103828.56;;;8.76;61.79
70248;BME280;57641;51.416;5.506;2023-02-13T09:25:07;103835.41;;;8.81;61.49
70248;BME280;57641;51.416;5.506;2023-02-13T09:27:35;103825.28;;;8.89;61.70
70248;BME280;57641;51.416;5.506;2023-02-13T09:30:08;103832.00;;;8.98;62.69
70248;BME280;57641;51.416;5.506;2023-02-13T09:32:35;103820.19;;;9.04;62.20
70248;BME280;57641;51.416;5.506;2023-02-13T09:35:13;103832.06;;;9.15;62.76
70248;BME280;57641;51.416;5.506;2023-02-13T09:37:39;103831.66;;;9.24;62.66
70248;BME280;57641;51.416;5.506;2023-02-13T09:42:52;103823.56;;;9.45;63.27
70248;BME280;57641;51.416;5.506;2023-02-13T09:45:24;103824.84;;;9.55;63.38
70248;BME280;57641;51.416;5.506;2023-02-13T09:47:53;103811.00;;;9.65;63.05
70248;BME280;57641;51.416;5.506;2023-02-13T09:50:24;103820.22;;;9.77;63.53
70248;BME280;57641;51.416;5.506;2023-02-13T09:52:52;103820.56;;;9.88;63.21
70248;BME280;57641;51.416;5.506;2023-02-13T09:55:41;103818.19;;;9.99;63.01
70248;BME280;57641;51.416;5.506;2023-02-13T09:58:21;103821.03;;;10.13;63.62
70248;BME280;57641;51.416;5.506;2023-02-13T10:00:57;103821.28;;;10.26;63.31
70248;BME280;57641;51.416;5.506;2023-02-13T10:03:30;103816.19;;;10.39;63.03
70248;BME280;57641;51.416;5.506;2023-02-13T10:06:21;103821.75;;;10.51;63.40
70248;BME280;57641;51.416;5.506;2023-02-13T10:09:16;103822.53;;;10.53;62.93
70248;BME280;57641;51.416;5.506;2023-02-13T10:12:07;103828.97;;;10.67;63.28
70248;BME280;57641;51.416;5.506;2023-02-13T10:17:33;103825.53;;;10.80;61.99
70248;BME280;57641;51.416;5.506;2023-02-13T10:22:55;103825.66;;;10.94;61.95
70248;BME280;57641;51.416;5.506;2023-02-13T10:25:39;103820.09;;;10.99;61.29
70248;BME280;57641;51.416;5.506;2023-02-13T10:28:15;103818.69;;;10.92;60.94
70248;BME280;57641;51.416;5.506;2023-02-13T10:30:58;103825.94;;;11.06;61.22
70248;BME280;57641;51.416;5.506;2023-02-13T10:33:46;103823.53;;;11.17;61.08
70248;BME280;57641;51.416;5.506;2023-02-13T10:36:18;103816.91;;;11.24;60.79
70248;BME280;57641;51.416;5.506;2023-02-13T10:39:00;103815.03;;;11.41;60.79
70248;BME280;57641;51.416;5.506;2023-02-13T10:41:43;103818.81;;;11.53;60.81
70248;BME280;57641;51.416;5.506;2023-02-13T10:44:48;103812.38;;;11.57;60.41
70248;BME280;57641;51.416;5.506;2023-02-13T11:00:52;103801.94;;;12.28;59.46
70248;BME280;57641;51.416;5.506;2023-02-13T11:03:21;103800.94;;;12.45;58.69
70248;BME280;57641;51.416;5.506;2023-02-13T11:05:53;103794.63;;;12.60;58.45
70248;BME280;57641;51.416;5.506;2023-02-13T11:10:45;103788.53;;;12.72;57.81
70248;BME280;57641;51.416;5.506;2023-02-13T11:13:23;103789.38;;;12.87;57.44
70248;BME280;57641;51.416;5.506;2023-02-13T11:16:06;103787.97;;;12.95;57.08
70248;BME280;57641;51.416;5.506;2023-02-13T11:18:40;103783.25;;;12.99;57.48
70248;BME280;57641;51.416;5.506;2023-02-13T11:21:13;103782.19;;;13.01;56.76
70248;BME280;57641;51.416;5.506;2023-02-13T11:23:52;103779.53;;;13.16;57.12
70248;BME280;57641;51.416;5.506;2023-02-13T11:26:37;103771.50;;;13.16;56.11
70248;BME280;57641;51.416;5.506;2023-02-13T11:29:24;103771.75;;;13.25;55.88
70248;BME280;57641;51.416;5.506;2023-02-13T11:32:18;103766.75;;;13.33;56.25
70248;BME280;57641;51.416;5.506;2023-02-13T11:34:45;103762.81;;;13.39;56.04
70248;BME280;57641;51.416;5.506;2023-02-13T11:39:41;103755.16;;;13.60;55.15
70248;BME280;57641;51.416;5.506;2023-02-13T11:42:16;103755.53;;;13.80;53.99
70248;BME280;57641;51.416;5.506;2023-02-13T11:44:50;103757.50;;;13.78;54.63
70248;BME280;57641;51.416;5.506;2023-02-13T11:49:58;103748.09;;;13.98;54.27
70248;BME280;57641;51.416;5.506;2023-02-13T11:52:30;103749.94;;;14.10;53.44
70248;BME280;57641;51.416;5.506;2023-02-13T11:54:59;103741.34;;;14.05;53.92
70248;BME280;57641;51.416;5.506;2023-02-13T11:57:30;103738.03;;;14.14;53.79
70248;BME280;57641;51.416;5.506;2023-02-13T12:00:01;103742.63;;;14.25;53.49
70248;BME280;57641;51.416;5.506;2023-02-13T12:02:49;103740.16;;;14.34;53.06
70248;BME280;57641;51.416;5.506;2023-02-13T12:05:18;103736.22;;;14.40;53.07
70248;BME280;57641;51.416;5.506;2023-02-13T12:07:46;103737.53;;;14.47;52.73
70248;BME280;57641;51.416;5.506;2023-02-13T12:10:19;103724.72;;;14.51;52.04
70248;BME280;57641;51.416;5.506;2023-02-13T12:13:24;103731.50;;;14.56;51.67
70248;BME280;57641;51.416;5.506;2023-02-13T12:15:58;103723.53;;;14.55;51.68
70248;BME280;57641;51.416;5.506;2023-02-13T12:18:33;103720.75;;;14.56;51.25
70248;BME280;57641;51.416;5.506;2023-02-13T12:21:02;103721.81;;;14.66;51.22
70248;BME280;57641;51.416;5.506;2023-02-13T12:26:22;103716.88;;;14.60;50.93
70248;BME280;57641;51.416;5.506;2023-02-13T12:34:40;103708.72;;;14.74;51.46
70248;BME280;57641;51.416;5.506;2023-02-13T12:39:43;103709.31;;;14.91;51.08
70248;BME280;57641;51.416;5.506;2023-02-13T12:42:48;103706.28;;;14.95;50.55
70248;BME280;57641;51.416;5.506;2023-02-13T12:48:03;103706.84;;;14.88;50.90
70248;BME280;57641;51.416;5.506;2023-02-13T12:50:51;103692.72;;;14.97;51.12
70248;BME280;57641;51.416;5.506;2023-02-13T12:56:28;103686.16;;;15.01;51.06
70248;BME280;57641;51.416;5.506;2023-02-13T12:59:13;103684.44;;;15.00;50.69
70248;BME280;57641;51.416;5.506;2023-02-13T13:07:22;103681.84;;;15.11;50.48
70248;BME280;57641;51.416;5.506;2023-02-13T13:13:10;103680.88;;;15.23;50.32
70248;BME280;57641;51.416;5.506;2023-02-13T13:15:59;103675.19;;;15.28;50.13
70248;BME280;57641;51.416;5.506;2023-02-13T13:18:49;103676.44;;;15.35;50.02
70248;BME280;57641;51.416;5.506;2023-02-13T13:21:28;103670.53;;;15.30;49.90
70248;BME280;57641;51.416;5.506;2023-02-13T13:24:12;103668.25;;;15.36;49.38
70248;BME280;57641;51.416;5.506;2023-02-13T13:26:44;103673.13;;;15.31;48.90
70248;BME280;57641;51.416;5.506;2023-02-13T13:29:21;103672.94;;;15.45;49.38
70248;BME280;57641;51.416;5.506;2023-02-13T13:31:56;103663.91;;;15.46;49.22
70248;BME280;57641;51.416;5.506;2023-02-13T13:34:27;103665.28;;;15.52;49.12
70248;BME280;57641;51.416;5.506;2023-02-13T13:36:57;103658.28;;;15.49;48.79
70248;BME280;57641;51.416;5.506;2023-02-13T13:42:50;103650.91;;;15.40;48.45
70248;BME280;57641;51.416;5.506;2023-02-13T13:45:21;103644.69;;;15.40;48.95
70248;BME280;57641;51.416;5.506;2023-02-13T13:50:54;103637.88;;;15.47;48.67
70248;BME280;57641;51.416;5.506;2023-02-13T13:53:21;103632.38;;;15.48;48.56
70248;BME280;57641;51.416;5.506;2023-02-13T13:56:00;103637.56;;;15.51;47.98
70248;BME280;57641;51.416;5.506;2023-02-13T14:01:27;103634.28;;;15.59;47.47
70248;BME280;57641;51.416;5.506;2023-02-13T14:11:51;103628.91;;;15.59;47.23
70248;BME280;57641;51.416;5.506;2023-02-13T14:17:12;103632.91;;;15.53;47.34
70248;BME280;57641;51.416;5.506;2023-02-13T14:19:39;103627.19;;;15.58;47.32
70248;BME280;57641;51.416;5.506;2023-02-13T14:27:30;103618.66;;;15.64;47.14
70248;BME280;57641;51.416;5.506;2023-02-13T14:30:01;103614.34;;;15.61;47.10
70248;BME280;57641;51.416;5.506;2023-02-13T14:32:32;103617.78;;;15.63;46.69
70248;BME280;57641;51.416;5.506;2023-02-13T14:35:02;103612.53;;;15.62;46.72
70248;BME280;57641;51.416;5.506;2023-02-13T14:37:36;103616.56;;;15.68;47.01
70248;BME280;57641;51.416;5.506;2023-02-13T14:42:55;103613.88;;;15.68;46.65
70248;BME280;57641;51.416;5.506;2023-02-13T14:45:49;103599.56;;;15.67;45.96
70248;BME280;57641;51.416;5.506;2023-02-13T14:48:16;103612.03;;;15.68;46.27
70248;BME280;57641;51.416;5.506;2023-02-13T14:50:49;103610.22;;;15.69;46.00
70248;BME280;57641;51.416;5.506;2023-02-13T14:53:27;103605.34;;;15.74;46.17
70248;BME280;57641;51.416;5.506;2023-02-13T14:56:04;103599.09;;;15.73;46.11
70248;BME280;57641;51.416;5.506;2023-02-13T14:58:49;103597.16;;;15.75;46.02
70248;BME280;57641;51.416;5.506;2023-02-13T15:01:32;103590.28;;;15.71;45.92
70248;BME280;57641;51.416;5.506;2023-02-13T15:04:11;103596.88;;;15.67;45.77
70248;BME280;57641;51.416;5.506;2023-02-13T15:06:41;103596.13;;;15.65;45.80
70248;BME280;57641;51.416;5.506;2023-02-13T15:11:52;103596.66;;;15.70;46.46
70248;BME280;57641;51.416;5.506;2023-02-13T15:14:30;103601.78;;;15.73;46.59
70248;BME280;57641;51.416;5.506;2023-02-13T15:17:10;103596.66;;;15.70;46.86
70248;BME280;57641;51.416;5.506;2023-02-13T15:19:44;103590.28;;;15.71;46.99
70248;BME280;57641;51.416;5.506;2023-02-13T15:22:41;103584.78;;;15.73;46.52
70248;BME280;57641;51.416;5.506;2023-02-13T15:25:28;103579.28;;;15.74;46.87
70248;BME280;57641;51.416;5.506;2023-02-13T15:27:58;103580.53;;;15.70;46.82
70248;BME280;57641;51.416;5.506;2023-02-13T15:30:30;103586.63;;;15.72;46.69
70248;BME280;57641;51.416;5.506;2023-02-13T15:33:19;103581.72;;;15.77;46.64